Time;durP1;ratioP1;P1;durP2;ratioP2;P2;SDS_P1;SDS_P2;PMS_P1;PMS_P2;Temp;Humidity;BMP_temperature;BMP_pressure;BME280_temperature;BME280_humidity;BME280_pressure;Samples;Min_cycle;Max_cycle;Signal;HPM_P1;HPM_P2
2022/01/11 00:01:12;;;;;;;;;25.25;22.00;;;;;4.74;100.00;102044.59;5060117;28;45667;-63
2022/01/11 00:03:40;;;;;;;;;27.75;20.75;;;;;4.74;100.00;102045.50;5063056;28;45608;-64
2022/01/11 00:08:51;;;;;;;;;28.25;22.75;;;;;4.67;100.00;102033.28;5065632;27;45445;-65
2022/01/11 00:11:16;;;;;;;;;23.25;22.75;;;;;4.65;100.00;102035.00;5076606;28;45414;-63
2022/01/11 00:13:42;;;;;;;;;22.00;21.00;;;;;4.62;100.00;102038.44;5062354;28;45608;-61
2022/01/11 00:16:09;;;;;;;;;25.25;24.50;;;;;4.63;100.00;102050.59;5080897;28;45435;-63
2022/01/11 00:18:35;;;;;;;;;28.00;20.50;;;;;4.56;100.00;102038.38;5080346;28;45224;-62
2022/01/11 00:21:01;;;;;;;;;28.75;23.25;;;;;4.56;100.00;102048.81;5078844;28;45274;-61
2022/01/11 00:25:54;;;;;;;;;31.50;22.50;;;;;4.50;100.00;102046.16;5083170;28;45490;-60
2022/01/11 00:28:21;;;;;;;;;44.50;31.75;;;;;4.51;100.00;102056.59;5060141;28;45443;-59
2022/01/11 00:30:48;;;;;;;;;35.50;25.00;;;;;4.47;100.00;102047.03;5078131;27;45417;-61
2022/01/11 00:33:35;;;;;;;;;24.50;22.00;;;;;4.47;100.00;102046.13;5080250;28;45620;-61
2022/01/11 00:36:03;;;;;;;;;32.50;25.75;;;;;4.44;100.00;102041.78;5079886;28;46229;-62
2022/01/11 00:38:36;;;;;;;;;28.00;22.75;;;;;4.40;100.00;102034.78;5080273;28;45400;-61
2022/01/11 00:41:05;;;;;;;;;31.75;25.25;;;;;4.45;100.00;102037.44;5079648;28;45331;-61
2022/01/11 00:43:33;;;;;;;;;30.50;27.50;;;;;4.44;100.00;102036.56;5077943;27;45564;-61
2022/01/11 00:45:59;;;;;;;;;34.75;27.00;;;;;4.44;100.00;102035.69;5059768;28;47886;-61
2022/01/11 00:48:26;;;;;;;;;33.75;24.75;;;;;4.43;100.00;102040.03;5078726;28;45248;-61
2022/01/11 00:50:52;;;;;;;;;32.25;24.75;;;;;4.43;100.00;102042.63;5077146;27;45315;-61
2022/01/11 00:53:18;;;;;;;;;27.75;20.50;;;;;4.44;100.00;102052.19;5078472;27;45560;-61
2022/01/11 00:55:47;;;;;;;;;32.00;23.75;;;;;4.46;100.00;102044.38;5079150;28;46197;-60
2022/01/11 00:58:12;;;;;;;;;33.00;28.00;;;;;4.48;100.00;102029.63;5077994;27;45368;-60
2022/01/11 01:00:38;;;;;;;;;34.50;29.75;;;;;4.46;100.00;102040.06;5077110;28;45378;-62
2022/01/11 01:03:05;;;;;;;;;37.50;29.75;;;;;4.45;100.00;102038.31;5080263;27;45207;-62
2022/01/11 01:05:30;;;;;;;;;36.75;31.50;;;;;4.42;100.00;102046.09;5077701;28;45298;-61
2022/01/11 01:07:56;;;;;;;;;37.00;29.75;;;;;4.43;100.00;102044.34;5079087;28;45223;-60
2022/01/11 01:10:35;;;;;;;;;38.00;31.00;;;;;4.52;100.00;102053.16;5083768;28;45230;-61
2022/01/11 01:13:03;;;;;;;;;41.50;33.50;;;;;4.56;100.00;102053.16;5079580;28;45385;-60
2022/01/11 01:15:28;;;;;;;;;36.75;33.00;;;;;4.51;100.00;102059.22;5081055;28;46448;-61
2022/01/11 01:17:55;;;;;;;;;37.00;33.25;;;;;4.50;100.00;102069.59;5083285;28;45196;-61
2022/01/11 01:20:21;;;;;;;;;42.75;35.50;;;;;4.51;100.00;102073.97;5080333;28;45312;-61
2022/01/11 01:22:50;;;;;;;;;41.50;35.00;;;;;4.49;100.00;102066.16;5077938;28;45474;-60
2022/01/11 01:25:16;;;;;;;;;42.50;33.00;;;;;4.48;100.00;102068.72;5076614;27;46047;-61
2022/01/11 01:27:42;;;;;;;;;37.75;33.50;;;;;4.47;100.00;102070.47;5059183;28;46148;-62
2022/01/11 01:30:08;;;;;;;;;49.25;35.75;;;;;4.46;100.00;102060.91;5077428;27;45339;-60
2022/01/11 01:32:33;;;;;;;;;39.50;33.25;;;;;4.45;100.00;102066.97;5077591;27;45174;-60
2022/01/11 01:35:03;;;;;;;;;45.25;35.75;;;;;4.41;100.00;102054.78;5079489;28;45367;-61
2022/01/11 01:37:30;;;;;;;;;38.00;34.25;;;;;4.41;100.00;102061.72;5076704;28;45417;-61
2022/01/11 01:39:56;;;;;;;;;42.25;33.25;;;;;4.41;100.00;102066.91;5059044;28;45442;-62
2022/01/11 01:42:28;;;;;;;;;42.25;34.50;;;;;4.39;100.00;102072.13;5076832;28;45956;-61
2022/01/11 01:44:54;;;;;;;;;38.00;32.00;;;;;4.39;100.00;102080.81;5076568;27;46195;-61
2022/01/11 01:47:20;;;;;;;;;37.00;32.50;;;;;4.35;100.00;102081.63;5076491;28;45549;-61
2022/01/11 01:49:46;;;;;;;;;34.50;30.00;;;;;4.32;100.00;102081.59;5077331;27;45310;-61
2022/01/11 01:52:14;;;;;;;;;43.50;32.50;;;;;4.36;100.00;102090.34;5079166;28;45375;-59
2022/01/11 01:54:40;;;;;;;;;40.25;33.00;;;;;4.35;100.00;102089.44;5076684;28;46089;-62
2022/01/11 01:57:06;;;;;;;;;36.00;32.25;;;;;4.38;100.00;102088.63;5075987;28;45430;-60
2022/01/11 01:59:31;;;;;;;;;37.75;29.75;;;;;4.37;100.00;102092.94;5075436;28;45387;-60
2022/01/11 02:01:57;;;;;;;;;37.00;33.50;;;;;4.34;100.00;102085.09;5074843;27;45326;-60
2022/01/11 02:04:23;;;;;;;;;35.25;27.50;;;;;4.14;100.00;102053.63;5075997;27;46334;-61
2022/01/11 02:06:49;;;;;;;;;43.50;34.00;;;;;4.31;100.00;102098.09;5075955;28;45412;-61
2022/01/11 02:09:15;;;;;;;;;40.75;32.00;;;;;4.29;100.00;102102.41;5057928;28;45311;-61
2022/01/11 02:11:41;;;;;;;;;35.75;29.50;;;;;4.28;100.00;102098.06;5076617;28;45644;-60
2022/01/11 02:14:07;;;;;;;;;34.50;29.00;;;;;4.33;100.00;102101.59;5078824;28;46554;-61
2022/01/11 02:16:33;;;;;;;;;33.75;27.25;;;;;4.32;100.00;102112.00;5060497;28;45315;-60
2022/01/11 02:18:58;;;;;;;;;33.00;29.25;;;;;4.29;100.00;102101.56;5077924;28;45910;-60
2022/01/11 02:21:24;;;;;;;;;40.00;31.00;;;;;4.29;100.00;102104.16;5061539;28;45618;-62
2022/01/11 02:23:50;;;;;;;;;31.00;27.50;;;;;4.29;100.00;102106.78;5080143;28;46165;-60
2022/01/11 02:26:16;;;;;;;;;32.50;28.50;;;;;4.27;100.00;102101.53;5080266;27;45356;-60
2022/01/11 02:28:42;;;;;;;;;35.50;28.25;;;;;4.24;100.00;102105.00;5080254;28;45330;-60
2022/01/11 02:31:12;;;;;;;;;34.50;28.25;;;;;4.20;100.00;102097.97;5079481;28;45517;-61
2022/01/11 02:33:44;;;;;;;;;34.00;26.50;;;;;4.17;99.58;102091.88;5079385;28;47130;-61
2022/01/11 02:36:15;;;;;;;;;33.75;25.50;;;;;4.15;99.81;102096.19;5079258;28;45456;-64
2022/01/11 02:38:40;;;;;;;;;28.00;24.00;;;;;4.15;99.97;102104.84;5082792;28;45301;-62
2022/01/11 02:41:05;;;;;;;;;36.25;27.00;;;;;4.16;100.00;102105.75;5079753;28;45369;-61
2022/01/11 02:43:31;;;;;;;;;33.75;30.50;;;;;4.13;100.00;102098.75;5060593;28;48351;-61
2022/01/11 02:45:58;;;;;;;;;33.50;28.00;;;;;4.16;100.00;102104.00;5061253;28;45296;-61
2022/01/11 02:48:24;;;;;;;;;20.75;19.75;;;;;4.15;99.96;102104.84;5079230;27;45355;-60
2022/01/11 02:50:50;;;;;;;;;29.00;26.75;;;;;4.16;99.82;102114.41;5079082;27;45470;-61
2022/01/11 02:53:17;;;;;;;;;25.75;23.50;;;;;4.10;100.00;102101.34;5080515;28;45445;-61
2022/01/11 02:55:43;;;;;;;;;34.75;25.25;;;;;4.16;99.93;102101.41;5085592;28;45311;-61
2022/01/11 02:58:10;;;;;;;;;29.00;24.75;;;;;4.14;99.86;102103.09;5080197;27;45260;-63
2022/01/11 03:00:38;;;;;;;;;27.50;24.25;;;;;4.11;99.51;102108.28;5086590;28;45594;-60
2022/01/11 03:03:12;;;;;;;;;31.50;25.50;;;;;4.08;99.91;102097.84;5092960;27;46110;-61
2022/01/11 03:05:44;;;;;;;;;30.00;25.50;;;;;4.14;100.00;102110.06;5083405;27;45311;-61
2022/01/11 03:08:10;;;;;;;;;30.25;25.00;;;;;4.13;99.67;102105.72;5079924;27;45501;-60
2022/01/11 03:10:36;;;;;;;;;26.00;23.75;;;;;4.09;99.57;102107.41;5084827;28;46046;-60
2022/01/11 03:13:03;;;;;;;;;30.00;26.00;;;;;4.11;99.83;102115.25;5061272;28;47800;-61
2022/01/11 03:15:29;;;;;;;;;30.00;20.75;;;;;4.09;99.58;102116.09;5078856;28;45335;-59
2022/01/11 03:17:54;;;;;;;;;29.25;21.25;;;;;4.09;99.70;102115.22;5078807;28;45494;-61
2022/01/11 03:20:20;;;;;;;;;27.25;22.75;;;;;4.04;99.19;102122.97;5078480;27;45403;-61
2022/01/11 03:22:47;;;;;;;;;22.50;20.50;;;;;3.99;99.89;102128.97;5079114;27;45423;-62
2022/01/11 03:25:13;;;;;;;;;34.50;28.00;;;;;4.02;100.00;102132.50;5080942;28;45352;-60
2022/01/11 03:27:40;;;;;;;;;29.25;27.75;;;;;4.04;99.35;102125.59;5079588;28;45265;-61
2022/01/11 03:30:06;;;;;;;;;29.25;23.25;;;;;4.02;99.84;102129.00;5079745;28;45493;-59
2022/01/11 03:32:32;;;;;;;;;30.25;24.75;;;;;4.02;99.62;102118.59;5080960;27;47042;-60
2022/01/11 03:34:57;;;;;;;;;29.50;24.50;;;;;3.97;99.74;102117.66;5081339;27;45425;-59
2022/01/11 03:37:23;;;;;;;;;27.75;20.75;;;;;3.99;99.62;102129.88;5083335;28;45279;-60
2022/01/11 03:39:48;;;;;;;;;34.25;27.25;;;;;3.98;99.66;102129.84;5081453;28;45662;-60
2022/01/11 03:42:14;;;;;;;;;28.00;24.25;;;;;3.98;100.00;102135.94;5083807;27;45414;-59
2022/01/11 03:44:40;;;;;;;;;32.50;28.25;;;;;3.96;99.86;102127.22;5081959;27;45336;-61
2022/01/11 03:47:06;;;;;;;;;34.00;25.50;;;;;4.00;99.90;102141.13;5080635;28;45339;-61
2022/01/11 03:49:32;;;;;;;;;26.75;21.75;;;;;3.98;99.84;102138.53;5082244;27;45487;-61
2022/01/11 03:51:57;;;;;;;;;28.50;23.00;;;;;3.96;99.84;102137.66;5064422;28;46369;-61
2022/01/11 03:54:29;;;;;;;;;26.50;23.75;;;;;3.96;99.98;102140.25;5083594;28;45415;-61
2022/01/11 03:56:56;;;;;;;;;29.75;25.00;;;;;4.02;99.50;102153.34;5064938;28;45334;-61
2022/01/11 03:59:23;;;;;;;;;26.75;23.00;;;;;3.98;99.32;102140.25;5066923;28;45558;-60
2022/01/11 04:01:51;;;;;;;;;30.25;21.25;;;;;4.01;99.63;102137.69;5084154;28;46412;-61
2022/01/11 04:04:17;;;;;;;;;33.00;24.25;;;;;4.00;99.20;102139.44;5082287;27;45232;-60
2022/01/11 04:06:42;;;;;;;;;17.25;13.00;;;;;3.99;99.23;102136.78;5059475;28;45255;-61
2022/01/11 04:09:09;;;;;;;;;24.75;23.75;;;;;3.97;99.59;102133.28;5078455;27;45560;-61
2022/01/11 04:11:34;;;;;;;;;38.75;27.25;;;;;3.94;99.63;102136.75;5062392;28;47093;-60
2022/01/11 04:14:00;;;;;;;;;25.50;21.25;;;;;3.93;99.15;102133.25;5078335;27;45355;-60
2022/01/11 04:16:25;;;;;;;;;32.50;24.75;;;;;3.94;99.28;102135.00;5077526;27;45413;-61
2022/01/11 04:18:51;;;;;;;;;25.75;22.00;;;;;3.93;99.34;102135.84;5077822;27;45562;-60
2022/01/11 04:21:16;;;;;;;;;26.75;19.50;;;;;3.88;98.92;102132.31;5077699;28;46321;-60
2022/01/11 04:23:42;;;;;;;;;33.75;27.75;;;;;3.89;99.92;102138.41;5077795;28;45470;-62
2022/01/11 04:26:08;;;;;;;;;33.75;26.00;;;;;3.89;99.39;102131.47;5078399;28;45298;-60
2022/01/11 04:28:34;;;;;;;;;29.50;22.50;;;;;3.92;99.88;102130.66;5077719;28;45305;-59
2022/01/11 04:31:02;;;;;;;;;32.50;26.75;;;;;3.94;99.88;102127.19;5077233;28;45484;-59
2022/01/11 04:33:29;;;;;;;;;28.25;22.75;;;;;3.98;99.44;102137.66;5077269;28;45292;-60
2022/01/11 04:35:55;;;;;;;;;27.75;24.50;;;;;3.95;99.63;102136.75;5081534;27;45318;-60
2022/01/11 04:38:23;;;;;;;;;31.75;28.25;;;;;3.94;99.66;102136.75;5080642;27;45351;-60
2022/01/11 04:40:49;;;;;;;;;31.50;23.25;;;;;3.92;99.10;102136.72;5080808;28;45316;-60
2022/01/11 04:43:14;;;;;;;;;27.25;25.50;;;;;3.97;99.53;102151.53;5077138;28;45224;-60
2022/01/11 04:45:40;;;;;;;;;32.25;25.75;;;;;3.97;99.33;102149.81;5076387;27;45446;-60
2022/01/11 04:48:06;;;;;;;;;32.25;29.75;;;;;3.98;98.81;102148.06;5077710;28;45236;-61
2022/01/11 04:50:33;;;;;;;;;34.00;25.75;;;;;3.95;99.47;102138.50;5077751;27;45589;-60
2022/01/11 04:52:59;;;;;;;;;35.75;29.00;;;;;3.98;98.99;102143.75;5077042;28;45429;-62
2022/01/11 04:55:27;;;;;;;;;35.25;26.50;;;;;4.00;99.47;102152.44;5077314;28;45512;-61
2022/01/11 04:57:52;;;;;;;;;32.25;24.75;;;;;3.98;99.44;102148.94;5077302;27;45448;-59
2022/01/11 05:00:20;;;;;;;;;31.25;28.00;;;;;3.97;99.23;102144.59;5078460;28;46237;-60
2022/01/11 05:02:46;;;;;;;;;35.75;30.50;;;;;3.94;99.64;102161.03;5078140;28;45354;-60
2022/01/11 05:05:12;;;;;;;;;30.50;25.75;;;;;3.90;99.11;102145.38;5076951;27;45409;-60
2022/01/11 05:07:38;;;;;;;;;34.00;25.75;;;;;4.01;98.85;102166.31;5076812;27;45447;-61
2022/01/11 05:10:04;;;;;;;;;30.25;27.00;;;;;4.02;99.06;102173.28;5076791;27;46268;-61
2022/01/11 05:12:30;;;;;;;;;29.75;24.75;;;;;3.99;98.24;102166.31;5077276;28;45525;-61
2022/01/11 05:14:57;;;;;;;;;33.50;27.25;;;;;3.99;98.82;102176.75;5077433;27;45543;-65
2022/01/11 05:17:22;;;;;;;;;30.50;28.75;;;;;3.97;98.17;102172.34;5077653;28;45461;-60
2022/01/11 05:19:48;;;;;;;;;35.00;30.00;;;;;3.94;97.89;102166.25;5077447;28;45705;-61
2022/01/11 05:22:14;;;;;;;;;30.75;25.75;;;;;3.93;98.57;102169.72;5078788;28;45172;-60
2022/01/11 05:24:40;;;;;;;;;35.25;29.50;;;;;3.91;98.41;102171.41;5077656;27;45283;-60
2022/01/11 05:27:07;;;;;;;;;33.00;25.50;;;;;3.87;98.39;102148.81;5077250;28;45393;-61
2022/01/11 05:29:32;;;;;;;;;35.00;28.25;;;;;3.91;97.73;102168.81;5075033;27;46105;-61
2022/01/11 05:31:58;;;;;;;;;36.50;28.00;;;;;3.88;97.42;102170.50;5058701;28;45469;-60
2022/01/11 05:34:27;;;;;;;;;29.25;26.25;;;;;3.83;98.22;102173.03;5076408;28;45326;-62
2022/01/11 05:36:53;;;;;;;;;33.00;27.50;;;;;3.84;97.86;102174.78;5076853;27;45539;-60
2022/01/11 05:39:18;;;;;;;;;33.25;21.25;;;;;3.85;98.61;102186.94;5076582;28;46085;-60
2022/01/11 05:41:44;;;;;;;;;31.00;26.50;;;;;3.77;97.55;102188.56;5077843;28;45429;-60
2022/01/11 05:44:09;;;;;;;;;39.50;29.25;;;;;3.73;97.70;102197.19;5059332;27;45276;-61
2022/01/11 05:46:36;;;;;;;;;36.00;32.00;;;;;3.74;97.99;102199.84;5081230;28;45536;-59
2022/01/11 05:49:02;;;;;;;;;35.75;26.50;;;;;3.74;97.66;102201.56;5076800;28;46216;-59
2022/01/11 05:51:28;;;;;;;;;37.75;32.25;;;;;3.69;97.51;102198.00;5076235;28;45518;-60
2022/01/11 05:53:54;;;;;;;;;40.00;31.25;;;;;3.63;97.58;102194.47;5058823;28;45686;-60
2022/01/11 05:56:20;;;;;;;;;41.75;34.00;;;;;3.61;97.85;102188.38;5079470;27;45406;-60
2022/01/11 05:58:46;;;;;;;;;34.75;29.25;;;;;3.57;97.85;102194.38;5081745;28;46240;-60
2022/01/11 06:01:13;;;;;;;;;34.75;29.00;;;;;3.55;98.64;102193.47;5081160;28;45386;-61
2022/01/11 06:03:38;;;;;;;;;42.00;28.50;;;;;3.53;98.66;102189.97;5081715;27;45309;-61
2022/01/11 06:06:04;;;;;;;;;38.25;31.50;;;;;3.51;98.47;102196.88;5082795;27;45275;-61
2022/01/11 06:08:29;;;;;;;;;37.25;27.75;;;;;3.53;98.53;102197.78;5067895;28;46262;-64
2022/01/11 06:10:57;;;;;;;;;32.75;29.75;;;;;3.54;98.80;102199.53;5065740;27;45229;-62
2022/01/11 06:13:23;;;;;;;;;39.50;30.50;;;;;3.49;98.90;102212.47;5082174;27;45449;-61
2022/01/11 06:15:48;;;;;;;;;41.25;27.75;;;;;3.55;98.48;102229.00;5083148;28;45632;-61
2022/01/11 06:18:13;;;;;;;;;34.50;30.75;;;;;3.56;97.91;102231.66;5080807;27;46207;-61
2022/01/11 06:20:39;;;;;;;;;46.50;35.50;;;;;3.58;98.35;102237.75;5081079;28;45441;-61
2022/01/11 06:23:04;;;;;;;;;35.25;30.00;;;;;3.61;98.21;102235.19;5080314;28;45373;-60
2022/01/11 06:25:30;;;;;;;;;35.00;29.25;;;;;3.55;97.04;102227.31;5080703;27;45781;-61
2022/01/11 06:27:55;;;;;;;;;34.75;32.00;;;;;3.52;97.21;102232.47;5063886;27;45493;-60
2022/01/11 06:30:20;;;;;;;;;35.00;28.25;;;;;3.47;97.41;102228.91;5081804;28;45324;-61
2022/01/11 06:32:46;;;;;;;;;35.25;31.00;;;;;3.41;96.78;102234.00;5080615;27;45194;-60
2022/01/11 06:35:16;;;;;;;;;34.25;30.00;;;;;3.27;97.51;102229.47;5083196;28;45372;-60
2022/01/11 06:37:44;;;;;;;;;40.75;28.75;;;;;3.18;96.95;102237.97;5062721;28;46809;-62
2022/01/11 06:40:10;;;;;;;;;32.25;31.25;;;;;3.15;97.05;102234.44;5080859;27;45489;-61
2022/01/11 06:42:35;;;;;;;;;38.75;30.50;;;;;3.09;97.45;102236.91;5082452;27;45315;-61
2022/01/11 06:45:01;;;;;;;;;43.50;35.25;;;;;3.04;97.45;102247.25;5080692;28;45466;-61
2022/01/11 06:47:26;;;;;;;;;45.25;36.75;;;;;2.95;97.77;102242.75;5079855;27;45593;-61
2022/01/11 06:49:52;;;;;;;;;42.75;30.75;;;;;3.00;98.42;102259.31;5083355;27;45386;-61
2022/01/11 06:52:17;;;;;;;;;34.75;29.25;;;;;2.99;98.25;102254.97;5080102;28;45409;-60
2022/01/11 06:54:42;;;;;;;;;45.50;36.75;;;;;2.99;98.15;102259.28;5080332;27;45367;-61
2022/01/11 06:57:09;;;;;;;;;39.50;34.75;;;;;2.93;98.08;102244.44;5081441;27;46154;-61
2022/01/11 06:59:36;;;;;;;;;39.50;36.00;;;;;2.91;98.19;102246.16;5081949;27;45442;-61
2022/01/11 07:02:04;;;;;;;;;36.00;33.00;;;;;2.89;97.63;102243.53;5081583;27;45235;-60
2022/01/11 07:04:29;;;;;;;;;35.00;26.75;;;;;2.86;98.40;102235.69;5081264;27;45382;-63
2022/01/11 07:06:55;;;;;;;;;47.00;35.50;;;;;2.85;98.21;102239.13;5081539;27;46140;-61
2022/01/11 07:09:20;;;;;;;;;49.25;36.00;;;;;2.70;98.29;102220.66;5081210;28;45446;-61
2022/01/11 07:11:46;;;;;;;;;43.75;33.25;;;;;2.83;97.52;102259.00;5082385;27;45294;-61
2022/01/11 07:14:11;;;;;;;;;44.00;35.00;;;;;2.75;98.38;102251.06;5084311;27;45409;-62
2022/01/11 07:16:38;;;;;;;;;37.75;29.50;;;;;2.81;97.93;102259.81;5082787;28;45362;-60
2022/01/11 07:19:03;;;;;;;;;38.00;30.75;;;;;2.78;97.55;102250.25;5080629;28;45384;-64
2022/01/11 07:21:29;;;;;;;;;46.75;35.00;;;;;2.73;97.44;102255.34;5081239;28;45567;-62
2022/01/11 07:23:54;;;;;;;;;43.50;35.25;;;;;2.68;97.94;102264.78;5080154;27;45369;-60
2022/01/11 07:26:20;;;;;;;;;46.25;35.25;;;;;2.61;98.18;102265.50;5079301;28;45260;-62
2022/01/11 07:28:46;;;;;;;;;43.25;33.50;;;;;2.60;98.26;102267.22;5080225;27;45175;-63
2022/01/11 07:31:11;;;;;;;;;41.00;31.50;;;;;2.40;98.22;102242.56;5080531;27;44699;-60
2022/01/11 07:33:37;;;;;;;;;40.50;33.75;;;;;2.57;98.85;102266.28;5063029;28;45685;-61
2022/01/11 07:36:02;;;;;;;;;44.25;35.00;;;;;2.74;99.62;102300.41;5081553;27;46180;-61
2022/01/11 07:38:28;;;;;;;;;47.75;35.00;;;;;2.85;100.00;102295.41;5079712;28;45596;-61
2022/01/11 07:40:53;;;;;;;;;44.25;35.75;;;;;2.93;99.44;102299.03;5079921;28;45347;-60
2022/01/11 07:43:18;;;;;;;;;40.00;35.00;;;;;3.00;99.47;102303.50;5080149;27;45339;-61
2022/01/11 07:45:44;;;;;;;;;42.75;34.75;;;;;3.06;98.33;102302.75;5080010;27;45478;-61
2022/01/11 07:48:09;;;;;;;;;48.50;37.25;;;;;3.09;98.29;102301.94;5080015;28;45385;-61
2022/01/11 07:50:34;;;;;;;;;37.75;30.25;;;;;3.11;98.09;102301.13;5078808;27;45478;-61
2022/01/11 07:53:00;;;;;;;;;37.75;33.50;;;;;3.11;98.21;102305.44;5078636;28;45326;-62
2022/01/11 07:55:25;;;;;;;;;50.00;41.50;;;;;3.09;97.29;102312.31;5077796;27;45980;-59
2022/01/11 07:57:51;;;;;;;;;51.50;37.75;;;;;3.09;98.14;102308.03;5078157;27;45463;-63
2022/01/11 08:00:17;;;;;;;;;44.00;37.00;;;;;3.13;97.85;102308.94;5078543;28;45336;-61
2022/01/11 08:02:42;;;;;;;;;43.75;34.25;;;;;3.18;98.07;102317.69;5077498;27;45445;-61
2022/01/11 08:05:08;;;;;;;;;47.00;36.00;;;;;3.18;97.07;102312.50;5078386;27;45428;-61
2022/01/11 08:07:33;;;;;;;;;35.25;32.25;;;;;3.17;97.04;102316.84;5079392;27;45234;-61
2022/01/11 08:09:59;;;;;;;;;43.25;36.25;;;;;3.13;96.98;102314.13;5082082;28;45367;-62
2022/01/11 08:12:24;;;;;;;;;46.50;36.50;;;;;3.10;97.19;102316.69;5081821;27;45461;-61
2022/01/11 08:14:50;;;;;;;;;42.00;36.50;;;;;3.06;97.04;102319.22;5082486;28;46577;-63
2022/01/11 08:17:16;;;;;;;;;44.50;32.00;;;;;2.82;97.13;102288.44;5079441;28;45448;-60
2022/01/11 08:19:41;;;;;;;;;42.75;36.00;;;;;3.03;97.68;102333.91;5077138;28;45465;-61
2022/01/11 08:22:07;;;;;;;;;39.00;32.50;;;;;2.70;97.25;102283.00;5077593;28;45631;-61
2022/01/11 08:24:32;;;;;;;;;44.00;37.25;;;;;3.00;96.96;102345.09;5077332;27;46152;-59
2022/01/11 08:26:59;;;;;;;;;40.75;34.00;;;;;3.01;97.57;102340.78;5077923;27;45571;-61
2022/01/11 08:29:24;;;;;;;;;51.75;37.00;;;;;2.99;97.61;102345.94;5077696;28;45252;-63
2022/01/11 08:31:50;;;;;;;;;42.50;34.00;;;;;3.00;98.04;102347.69;5079167;28;45478;-62
2022/01/11 08:34:16;;;;;;;;;45.00;31.25;;;;;3.02;96.80;102352.94;5074938;27;45449;-63
2022/01/11 08:36:45;;;;;;;;;31.75;28.75;;;;;2.99;96.88;102351.16;5056308;28;45351;-60
2022/01/11 08:39:11;;;;;;;;;42.25;31.25;;;;;2.99;97.40;102347.69;5036954;28;45305;-60
2022/01/11 08:41:39;;;;;;;;;36.75;31.25;;;;;2.99;96.97;102353.75;5056823;28;45468;-61
2022/01/11 08:44:05;;;;;;;;;45.25;35.75;;;;;2.99;97.40;102350.28;5058025;28;46373;-62
2022/01/11 08:46:30;;;;;;;;;42.00;32.25;;;;;3.00;97.71;102342.50;5056444;28;45499;-61
2022/01/11 08:48:56;;;;;;;;;40.00;32.00;;;;;3.06;97.52;102345.22;5055542;28;45468;-60
2022/01/11 08:51:21;;;;;;;;;43.50;34.25;;;;;3.09;97.55;102349.63;5055930;28;45638;-60
2022/01/11 08:53:46;;;;;;;;;48.50;38.00;;;;;3.10;97.07;102340.09;5038077;28;46269;-62
2022/01/11 08:56:15;;;;;;;;;48.50;34.50;;;;;3.14;96.89;102341.88;5058555;28;45375;-61
2022/01/11 08:58:41;;;;;;;;;43.50;36.25;;;;;3.13;96.36;102347.94;5057075;28;45371;-60
2022/01/11 09:01:06;;;;;;;;;51.00;38.00;;;;;3.13;97.45;102347.94;5056840;28;45249;-61
2022/01/11 09:03:32;;;;;;;;;62.50;45.75;;;;;3.09;97.36;102338.31;5056618;28;45936;-61
2022/01/11 09:05:57;;;;;;;;;50.50;38.00;;;;;3.21;96.88;102368.06;5056642;28;45283;-62
2022/01/11 09:08:23;;;;;;;;;55.75;41.50;;;;;3.24;96.97;102356.84;5038598;28;45357;-65
2022/01/11 09:10:48;;;;;;;;;54.50;41.25;;;;;3.31;97.19;102360.44;5057054;28;45562;-61
2022/01/11 09:13:15;;;;;;;;;47.00;37.75;;;;;3.38;97.41;102358.84;5055963;28;45918;-61
2022/01/11 09:15:40;;;;;;;;;58.75;41.50;;;;;3.41;96.04;102367.56;5055913;28;45382;-61
2022/01/11 09:18:05;;;;;;;;;51.50;37.50;;;;;3.40;97.20;102371.00;5056887;28;45364;-62
2022/01/11 09:20:31;;;;;;;;;52.50;37.75;;;;;3.45;96.78;102371.09;5058614;28;45326;-62
2022/01/11 09:22:56;;;;;;;;;54.75;39.50;;;;;3.48;96.08;102377.22;5038807;28;46596;-61
2022/01/11 09:25:22;;;;;;;;;56.25;43.00;;;;;3.45;95.66;102384.97;5056426;28;45451;-61
2022/01/11 09:27:47;;;;;;;;;55.25;42.25;;;;;3.47;96.16;102374.59;5056558;28;45409;-61
2022/01/11 09:30:14;;;;;;;;;50.00;37.00;;;;;3.49;95.62;102383.31;5056883;28;45291;-62
2022/01/11 09:32:41;;;;;;;;;52.75;38.75;;;;;3.49;95.68;102383.31;5057932;28;45326;-61
2022/01/11 09:35:08;;;;;;;;;49.25;36.25;;;;;3.51;95.94;102392.03;5038206;28;45337;-61
2022/01/11 09:37:34;;;;;;;;;52.50;39.00;;;;;3.53;95.64;102390.34;5056895;28;45445;-61
2022/01/11 09:40:01;;;;;;;;;56.25;41.00;;;;;3.56;95.56;102398.19;5037846;28;45359;-61
2022/01/11 09:42:27;;;;;;;;;49.00;37.25;;;;;3.56;95.18;102398.19;5055631;28;45378;-60
2022/01/11 09:44:53;;;;;;;;;48.00;37.25;;;;;3.58;95.69;102393.91;5055822;28;45447;-62
2022/01/11 09:47:18;;;;;;;;;50.50;35.25;;;;;3.54;95.87;102384.28;5037765;28;45260;-61
2022/01/11 09:49:44;;;;;;;;;50.50;36.25;;;;;3.58;95.57;102391.28;5056300;28;45523;-62
2022/01/11 09:52:12;;;;;;;;;51.00;40.75;;;;;3.63;95.70;102389.66;5057163;28;45360;-62
2022/01/11 09:54:40;;;;;;;;;51.75;40.50;;;;;3.69;95.92;102398.41;5058204;28;45567;-62
2022/01/11 09:57:06;;;;;;;;;50.50;40.25;;;;;3.68;95.08;102399.25;5056474;28;45386;-61
2022/01/11 09:59:32;;;;;;;;;57.50;40.25;;;;;3.63;94.54;102402.66;5055464;28;45467;-61
2022/01/11 10:01:58;;;;;;;;;55.75;42.00;;;;;3.60;94.74;102406.91;5056567;28;45414;-62
2022/01/11 10:04:28;;;;;;;;;56.75;39.75;;;;;3.58;94.93;102406.91;5055374;28;45198;-61
2022/01/11 10:06:57;;;;;;;;;48.75;38.25;;;;;3.53;94.79;102390.34;5040626;28;45272;-61
2022/01/11 10:09:25;;;;;;;;;48.75;39.25;;;;;3.60;95.64;102404.31;5074539;28;45559;-62
2022/01/11 10:11:57;;;;;;;;;53.25;40.00;;;;;3.62;95.90;102395.69;5073641;27;46245;-61
2022/01/11 10:14:32;;;;;;;;;56.50;37.00;;;;;3.70;95.92;102401.03;5074081;28;45399;-62
2022/01/11 10:17:08;;;;;;;;;58.00;40.75;;;;;3.81;96.00;102409.03;5076711;28;45313;-60
2022/01/11 10:19:35;;;;;;;;;56.00;42.00;;;;;3.87;95.37;102408.28;5074855;27;45474;-62
2022/01/11 10:22:07;;;;;;;;;54.75;42.50;;;;;3.88;94.75;102413.50;5075030;27;45717;-61
2022/01/11 10:24:39;;;;;;;;;55.00;41.25;;;;;3.91;94.81;102423.09;5075517;28;45389;-62
2022/01/11 10:27:28;;;;;;;;;49.00;37.50;;;;;3.92;94.90;102420.50;5075996;27;45426;-62
2022/01/11 10:29:55;;;;;;;;;55.50;39.75;;;;;3.94;95.34;102416.22;5075738;27;45438;-63
2022/01/11 10:32:27;;;;;;;;;55.50;40.00;;;;;4.00;94.95;102420.66;5076061;28;46215;-61
2022/01/11 10:34:57;;;;;;;;;55.75;40.00;;;;;4.06;94.78;102417.25;5076255;28;45393;-62
2022/01/11 10:37:33;;;;;;;;;51.00;36.75;;;;;4.13;94.98;102424.31;5075250;28;45253;-62
2022/01/11 10:40:06;;;;;;;;;43.75;35.50;;;;;4.17;94.44;102428.72;5075941;27;45575;-62
2022/01/11 10:42:34;;;;;;;;;49.75;38.00;;;;;4.22;94.63;102434.03;5076224;28;45906;-60
2022/01/11 10:45:05;;;;;;;;;45.50;37.50;;;;;4.28;94.22;102428.06;5081454;27;45463;-65
2022/01/11 10:47:34;;;;;;;;;55.50;40.25;;;;;4.29;93.96;102430.66;5077392;27;45287;-61
2022/01/11 10:50:06;;;;;;;;;57.00;44.00;;;;;4.32;93.88;102437.66;5079191;27;45595;-62
2022/01/11 10:52:34;;;;;;;;;57.25;40.50;;;;;4.30;93.91;102422.00;5080607;27;45294;-62
2022/01/11 10:55:02;;;;;;;;;50.75;37.00;;;;;4.35;94.32;102427.28;5060341;28;45791;-62
2022/01/11 10:57:36;;;;;;;;;53.50;38.50;;;;;4.39;93.66;102422.13;5078982;28;45291;-61
2022/01/11 11:00:10;;;;;;;;;53.25;42.00;;;;;4.45;93.54;102423.09;5079254;27;45302;-60
2022/01/11 11:02:37;;;;;;;;;48.00;37.75;;;;;4.45;93.38;102423.09;5079134;27;46639;-60
2022/01/11 11:05:14;;;;;;;;;52.25;39.00;;;;;4.41;92.03;102427.38;5079424;27;45370;-61
2022/01/11 11:07:41;;;;;;;;;50.50;36.25;;;;;4.33;92.50;102432.47;5079194;27;45301;-62
2022/01/11 11:10:07;;;;;;;;;56.25;39.25;;;;;4.27;93.09;102423.69;5079046;27;45499;-62
2022/01/11 11:12:33;;;;;;;;;51.00;39.50;;;;;4.28;93.65;102425.44;5078147;27;46590;-61
2022/01/11 11:15:03;;;;;;;;;54.50;40.75;;;;;4.33;93.69;102426.41;5078096;28;45327;-62
2022/01/11 11:17:37;;;;;;;;;55.50;40.75;;;;;4.40;93.61;102428.25;5078415;27;45417;-61